Terminal Aerodrome Forecast
Issued by NWS

Home | Current Version | Previous Version | Text Only | Print | Product List | Glossary On
Versions: 1 2 3 4 5 6 7 8 9 10 11 12 13 14 15 16 17 18
026
FTUS42 TJSJ 251847 AAA
TAFJSJ
TAF AMD
TJSJ 251847Z 2519/2618 15012KT P6SM VCSH FEW030 SCT090 BKN110
     FM252300 11005KT P6SM VCSH SCT025 BKN060
     FM260300 19003KT P6SM FEW030 SCT060 SCT090
     FM261500 23004KT P6SM VCSH SCT025 BKN060=

USA.gov is the U.S. government's official web portal to all federal, state and local government web resources and services.